createdAt,value
2022-08-05T00:00:17.357Z,100251.06
2022-08-05T00:02:50.557Z,100250.09
2022-08-05T00:06:02.663Z,100249.88
2022-08-05T00:08:05.150Z,100249.38
2022-08-05T00:10:46.335Z,100247.03
2022-08-05T00:13:18.684Z,100249.22
2022-08-05T00:15:55.271Z,100243.44
2022-08-05T00:18:24.929Z,100240.81
2022-08-05T00:20:51.796Z,100246.66
2022-08-05T00:23:44.582Z,100246.97
2022-08-05T00:26:07.157Z,100239.28
2022-08-05T00:28:34.776Z,100246.97
2022-08-05T00:31:04.369Z,100244.37
2022-08-05T00:34:54.739Z,100242.28
2022-08-05T00:37:11.568Z,100239.09
2022-08-05T00:39:05.526Z,100240.41
2022-08-05T00:41:51.639Z,100237.78
2022-08-05T00:44:23.317Z,100238.06
2022-08-05T00:47:03.973Z,100236.25
2022-08-05T00:49:51.033Z,100231.78
2022-08-05T00:52:28.396Z,100239.16
2022-08-05T00:54:55.992Z,100239.16
2022-08-05T00:57:25.136Z,100240.78
2022-08-05T00:59:52.174Z,100232.06
2022-08-05T01:02:18.875Z,100239.97
2022-08-05T01:04:45.617Z,100222.28
2022-08-05T01:07:31.589Z,100238.13
2022-08-05T01:09:58.866Z,100236.28
2022-08-05T01:12:29.808Z,100237.88
2022-08-05T01:15:35.803Z,100236.28
2022-08-05T01:18:03.493Z,100232.59
2022-08-05T01:21:02.652Z,100235.75
2022-08-05T01:23:35.580Z,100234.41
2022-08-05T01:26:05.133Z,100241.81
2022-08-05T01:28:53.912Z,100231.25
2022-08-05T01:31:26.911Z,100236.78
2022-08-05T01:34:01.824Z,100240.19
2022-08-05T01:36:32.949Z,100231.78
2022-08-05T01:39:01.120Z,100239.69
2022-08-05T01:41:31.799Z,100235.19
2022-08-05T01:44:00.920Z,100230.69
2022-08-05T01:46:42.904Z,100234.91
2022-08-05T01:49:23.631Z,100235.69
2022-08-05T01:51:54.955Z,100237.53
2022-08-05T01:54:25.695Z,100239.38
2022-08-05T01:58:10.465Z,100247.81
2022-08-05T01:59:47.381Z,100248.84
2022-08-05T02:02:16.016Z,100240.69
2022-08-05T02:04:49.551Z,100248.03
2022-08-05T02:07:22.071Z,100240.69
2022-08-05T02:09:50.394Z,100243.56
2022-08-05T02:12:20.737Z,100249.63
2022-08-05T02:14:57.800Z,100246.69
2022-08-05T02:18:33.038Z,100249.31
2022-08-05T02:20:23.264Z,100259.53
2022-08-05T02:23:01.731Z,100249.56
2022-08-05T02:25:49.079Z,100251.38
2022-08-05T02:28:28.328Z,100253.75
2022-08-05T02:31:01.085Z,100250.03
2022-08-05T02:33:35.944Z,100243.66
2022-08-05T02:36:09.461Z,100244.50
2022-08-05T02:38:37.538Z,100235.72
2022-08-05T02:41:14.708Z,100247.81
2022-08-05T02:44:06.229Z,100251.53
2022-08-05T02:46:33.404Z,100245.25
2022-08-05T02:49:01.874Z,100242.81
2022-08-05T02:52:03.986Z,100246.78
2022-08-05T02:54:35.844Z,100245.19
2022-08-05T02:57:10.404Z,100244.09
2022-08-05T02:59:55.358Z,100242.03
2022-08-05T03:02:29.026Z,100240.19
2022-08-05T03:04:58.048Z,100250.66
2022-08-05T03:07:59.413Z,100242.47
2022-08-05T03:10:22.033Z,100243.06
2022-08-05T03:12:52.954Z,100235.62
2022-08-05T03:15:20.548Z,100234.31
2022-08-05T03:17:47.281Z,100240.41
2022-08-05T03:20:14.003Z,100235.16
2022-08-05T03:22:46.919Z,100234.81
2022-08-05T03:25:34.055Z,100235.94
2022-08-05T03:28:08.470Z,100230.91
2022-08-05T03:30:38.342Z,100229.63
2022-08-05T03:33:08.318Z,100227.00
2022-08-05T03:35:41.044Z,100229.41
2022-08-05T03:38:11.463Z,100228.59
2022-08-05T03:40:47.194Z,100230.41
2022-08-05T03:43:59.004Z,100226.47
2022-08-05T03:46:02.831Z,100227.31
2022-08-05T03:48:35.671Z,100225.00
2022-08-05T03:52:35.099Z,100232.69
2022-08-05T03:55:54.744Z,100235.88
2022-08-05T03:56:52.721Z,100222.44
2022-08-05T03:59:46.830Z,100235.38
2022-08-05T04:02:17.436Z,100225.91
2022-08-05T04:05:05.674Z,100227.50
2022-08-05T04:07:57.511Z,100220.16
2022-08-05T04:10:27.666Z,100221.72
2022-08-05T04:12:55.598Z,100228.06
2022-08-05T04:15:26.150Z,100227.03
2022-08-05T04:17:57.397Z,100222.03
2022-08-05T04:20:26.746Z,100227.78
2022-08-05T04:22:53.372Z,100226.69
2022-08-05T04:25:20.281Z,100225.91
2022-08-05T04:28:11.355Z,100220.28
2022-08-05T04:30:39.354Z,100225.41
2022-08-05T04:33:06.332Z,100223.37
2022-08-05T04:36:11.290Z,100223.72
2022-08-05T04:38:20.982Z,100214.94
2022-08-05T04:40:50.749Z,100225.94
2022-08-05T04:43:17.775Z,100222.84
2022-08-05T04:45:55.101Z,100220.88
2022-08-05T04:48:27.378Z,100225.19
2022-08-05T04:51:01.885Z,100223.28
2022-08-05T04:53:33.594Z,100231.19
2022-08-05T04:56:33.468Z,100227.03
2022-08-05T04:58:49.423Z,100234.91
2022-08-05T05:01:33.769Z,100230.91
2022-08-05T05:04:02.955Z,100225.72
2022-08-05T05:06:38.725Z,100228.06
2022-08-05T05:09:07.830Z,100224.78
2022-08-05T05:11:54.042Z,100226.87
2022-08-05T05:14:28.013Z,100223.37
2022-08-05T05:17:00.168Z,100218.97
2022-08-05T05:19:36.554Z,100223.22
2022-08-05T05:22:24.137Z,100219.28
2022-08-05T05:24:59.452Z,100218.19
2022-08-05T05:27:45.221Z,100217.94
2022-08-05T05:30:31.143Z,100220.25
2022-08-05T05:33:03.802Z,100219.06
2022-08-05T05:35:42.586Z,100219.84
2022-08-05T05:38:13.583Z,100216.13
2022-08-05T05:40:50.029Z,100217.91
2022-08-05T05:43:27.863Z,100207.38
2022-08-05T05:46:10.673Z,100210.09
2022-08-05T05:48:37.531Z,100206.25
2022-08-05T05:51:14.862Z,100210.31
2022-08-05T05:53:54.110Z,100218.28
2022-08-05T05:56:33.004Z,100218.53
2022-08-05T05:59:08.044Z,100210.03
2022-08-05T06:01:40.583Z,100218.62
2022-08-05T06:04:24.160Z,100213.56
2022-08-05T06:06:50.817Z,100211.19
2022-08-05T06:09:25.655Z,100216.81
2022-08-05T06:11:59.184Z,100214.38
2022-08-05T06:14:29.554Z,100210.25
2022-08-05T06:16:56.809Z,100215.16
2022-08-05T06:19:26.239Z,100210.00
2022-08-05T06:22:00.969Z,100210.06
2022-08-05T06:24:27.601Z,100219.53
2022-08-05T06:26:54.210Z,100210.28
2022-08-05T06:29:43.017Z,100216.06
2022-08-05T06:32:25.343Z,100218.72
2022-08-05T06:34:58.369Z,100216.91
2022-08-05T06:37:56.635Z,100223.09
2022-08-05T06:40:14.020Z,100212.66
2022-08-05T06:42:45.768Z,100219.84
2022-08-05T06:45:20.754Z,100219.63
2022-08-05T06:48:44.270Z,100218.03
2022-08-05T06:50:35.306Z,100226.06
2022-08-05T06:53:11.236Z,100224.78
2022-08-05T06:55:38.439Z,100215.19
2022-08-05T06:58:29.873Z,100220.81
2022-08-05T07:00:58.544Z,100220.31
2022-08-05T07:03:32.409Z,100217.38
2022-08-05T07:06:06.137Z,100229.47
2022-08-05T07:08:41.989Z,100216.91
2022-08-05T07:11:15.550Z,100218.16
2022-08-05T07:14:01.750Z,100218.91
2022-08-05T07:17:56.413Z,100219.38
2022-08-05T07:22:27.654Z,100217.50
2022-08-05T07:24:56.504Z,100216.37
2022-08-05T07:27:23.311Z,100216.06
2022-08-05T07:30:24.007Z,100219.75
2022-08-05T07:32:43.620Z,100213.31
2022-08-05T07:35:55.926Z,100222.69
2022-08-05T07:38:00.900Z,100210.00
2022-08-05T07:40:32.962Z,100205.59
2022-08-05T07:43:04.640Z,100202.87
2022-08-05T07:45:58.156Z,100206.34
2022-08-05T07:49:03.026Z,100200.75
2022-08-05T07:51:08.567Z,100214.44
2022-08-05T07:53:51.611Z,100205.63
2022-08-05T07:56:38.993Z,100210.03
2022-08-05T07:59:05.254Z,100198.12
2022-08-05T08:01:35.481Z,100196.37
2022-08-05T08:04:34.347Z,100198.34
2022-08-05T08:07:07.218Z,100201.25
2022-08-05T08:09:34.394Z,100196.56
2022-08-05T08:12:09.021Z,100201.72
2022-08-05T08:14:46.812Z,100192.44
2022-08-05T08:17:21.376Z,100198.66
2022-08-05T08:20:21.081Z,100199.94
2022-08-05T08:22:35.526Z,100198.97
2022-08-05T08:25:02.871Z,100196.28
2022-08-05T08:27:39.980Z,100192.78
2022-08-05T08:30:19.086Z,100202.91
2022-08-05T08:32:56.939Z,100192.03
2022-08-05T08:35:26.586Z,100194.44
2022-08-05T08:37:54.413Z,100195.94
2022-08-05T08:40:23.858Z,100191.31
2022-08-05T08:42:52.443Z,100186.66
2022-08-05T08:45:26.524Z,100185.28
2022-08-05T08:48:10.697Z,100191.38
2022-08-05T08:51:03.722Z,100191.53
2022-08-05T08:53:40.223Z,100185.41
2022-08-05T08:56:11.135Z,100185.00
2022-08-05T08:58:44.636Z,100186.72
2022-08-05T09:01:18.883Z,100187.59
2022-08-05T09:03:55.459Z,100180.81
2022-08-05T09:06:29.844Z,100172.69
2022-08-05T09:09:00.184Z,100184.34
2022-08-05T09:11:50.748Z,100175.22
2022-08-05T09:14:56.618Z,100181.12
2022-08-05T09:17:03.520Z,100178.53
2022-08-05T09:19:36.799Z,100177.38
2022-08-05T09:22:32.080Z,100172.00
2022-08-05T09:25:02.248Z,100168.53
2022-08-05T09:28:04.025Z,100167.09
2022-08-05T09:30:34.426Z,100160.78
2022-08-05T09:33:04.962Z,100154.19
2022-08-05T09:35:31.717Z,100158.03
2022-08-05T09:38:12.237Z,100148.28
2022-08-05T09:40:52.212Z,100151.56
2022-08-05T09:43:41.566Z,100152.59
2022-08-05T09:46:33.266Z,100147.00
2022-08-05T09:49:18.953Z,100148.31
2022-08-05T09:51:48.806Z,100143.47
2022-08-05T09:54:21.404Z,100140.91
2022-08-05T09:56:57.599Z,100131.66
2022-08-05T09:59:28.090Z,100138.87
2022-08-05T10:01:57.724Z,100136.22
2022-08-05T10:04:38.538Z,100133.00
2022-08-05T10:07:20.051Z,100131.31
2022-08-05T10:10:15.324Z,100122.66
2022-08-05T10:12:50.154Z,100121.53
2022-08-05T10:15:21.828Z,100124.16
2022-08-05T10:18:16.946Z,100114.63
2022-08-05T10:20:51.271Z,100113.12
2022-08-05T10:23:55.479Z,100114.06
2022-08-05T10:26:14.417Z,100110.66
2022-08-05T10:28:44.933Z,100101.66
2022-08-05T10:32:54.508Z,100095.41
2022-08-05T10:34:08.023Z,100094.78
2022-08-05T10:36:40.558Z,100099.81
2022-08-05T10:39:24.814Z,100092.78
2022-08-05T10:42:33.924Z,100088.59
2022-08-05T10:45:02.065Z,100086.00
2022-08-05T10:48:27.600Z,100087.09
2022-08-05T10:51:00.536Z,100087.50
2022-08-05T10:53:45.307Z,100083.12
2022-08-05T10:56:25.655Z,100093.78
2022-08-05T10:58:55.823Z,100092.16
2022-08-05T11:01:55.601Z,100079.59
2022-08-05T11:04:26.303Z,100082.16
2022-08-05T11:07:05.892Z,100069.91
2022-08-05T11:09:46.684Z,100073.00
2022-08-05T11:12:41.265Z,100065.78
2022-08-05T11:16:01.308Z,100069.06
2022-08-05T11:18:30.031Z,100065.00
2022-08-05T11:20:59.440Z,100065.16
2022-08-05T11:24:03.181Z,100057.41
2022-08-05T11:26:29.154Z,100059.06
2022-08-05T11:29:12.076Z,100050.25
2022-08-05T11:31:56.929Z,100053.97
2022-08-05T11:34:51.303Z,100058.53
2022-08-05T11:38:36.741Z,100053.97
2022-08-05T11:41:34.637Z,100051.78
2022-08-05T11:44:07.606Z,100053.66
2022-08-05T11:47:10.297Z,100052.41
2022-08-05T11:49:26.358Z,100050.81
2022-08-05T11:51:53.568Z,100047.03
2022-08-05T11:54:34.533Z,100047.63
2022-08-05T11:57:08.607Z,100057.16
2022-08-05T11:59:51.137Z,100048.44
2022-08-05T12:02:24.475Z,100042.09
2022-08-05T12:04:59.855Z,100048.31
2022-08-05T12:08:09.296Z,100049.00
2022-08-05T12:10:23.002Z,100042.12
2022-08-05T12:12:59.202Z,100042.75
2022-08-05T12:15:35.775Z,100043.87
2022-08-05T12:18:10.659Z,100045.62
2022-08-05T12:20:38.878Z,100035.31
2022-08-05T12:23:12.546Z,100032.88
2022-08-05T12:25:56.778Z,100037.31
2022-08-05T12:28:37.878Z,100032.69
2022-08-05T12:31:05.259Z,100038.00
2022-08-05T12:33:36.294Z,100030.59
2022-08-05T12:36:07.891Z,100029.56
2022-08-05T12:38:39.746Z,100026.38
2022-08-05T12:41:16.200Z,100029.81
2022-08-05T12:43:55.708Z,100028.69
2022-08-05T12:46:31.494Z,100026.97
2022-08-05T12:49:13.628Z,100019.22
2022-08-05T12:52:12.789Z,100022.84
2022-08-05T12:54:49.767Z,100016.50
2022-08-05T12:57:17.274Z,100019.69
2022-08-05T13:01:56.745Z,100015.03
2022-08-05T13:02:36.602Z,100013.53
2022-08-05T13:05:06.650Z,100011.03
2022-08-05T13:07:59.252Z,100014.34
2022-08-05T13:10:20.451Z,100003.19
2022-08-05T13:12:51.233Z,100001.03
2022-08-05T13:15:35.980Z,100003.97
2022-08-05T13:18:19.426Z,99993.28
2022-08-05T13:20:49.385Z,99985.66
2022-08-05T13:23:22.168Z,99989.91
2022-08-05T13:25:52.543Z,99988.50
2022-08-05T13:28:27.239Z,99976.03
2022-08-05T13:30:53.921Z,99978.78
2022-08-05T13:34:24.127Z,99974.88
2022-08-05T13:36:10.401Z,99968.81
2022-08-05T13:38:38.490Z,99974.31
2022-08-05T13:41:09.492Z,99968.19
2022-08-05T13:43:45.618Z,99965.41
2022-08-05T13:46:50.744Z,99968.06
2022-08-05T13:49:13.633Z,99959.31
2022-08-05T13:51:46.189Z,99970.22
2022-08-05T13:54:16.013Z,99956.75
2022-08-05T13:56:51.158Z,99963.69
2022-08-05T13:59:30.697Z,99952.41
2022-08-05T14:02:00.292Z,99942.81
2022-08-05T14:04:51.827Z,99949.94
2022-08-05T14:08:00.162Z,99939.87
2022-08-05T14:10:19.027Z,99937.03
2022-08-05T14:12:54.735Z,99936.22
2022-08-05T14:16:04.343Z,99926.50
2022-08-05T14:18:14.645Z,99930.78
2022-08-05T14:20:47.343Z,99932.28
2022-08-05T14:23:25.004Z,99930.59
2022-08-05T14:25:58.967Z,99928.25
2022-08-05T14:28:28.135Z,99926.91
2022-08-05T14:30:55.904Z,99922.34
2022-08-05T14:33:23.701Z,99921.09
2022-08-05T14:35:52.070Z,99921.47
2022-08-05T14:38:27.761Z,99920.62
2022-08-05T14:41:00.004Z,99913.00
2022-08-05T14:44:02.552Z,99911.91
2022-08-05T14:46:13.475Z,99913.97
2022-08-05T14:48:40.157Z,99900.28
2022-08-05T14:51:06.844Z,99900.69
2022-08-05T14:53:44.353Z,99904.53
2022-08-05T14:56:11.860Z,99899.59
2022-08-05T14:58:39.868Z,99903.63
2022-08-05T15:01:15.988Z,99891.44
2022-08-05T15:03:43.655Z,99893.06
2022-08-05T15:06:15.421Z,99891.56
2022-08-05T15:09:01.123Z,99901.69
2022-08-05T15:11:53.254Z,99899.78
2022-08-05T15:14:34.301Z,99895.78
2022-08-05T15:17:05.438Z,99891.31
2022-08-05T15:19:41.244Z,99893.78
2022-08-05T15:22:16.081Z,99882.50
2022-08-05T15:24:44.180Z,99877.66
2022-08-05T15:27:11.467Z,99883.12
2022-08-05T15:29:42.100Z,99885.84
2022-08-05T15:32:09.000Z,99871.59
2022-08-05T15:34:35.612Z,99875.47
2022-08-05T15:37:06.225Z,99872.34
2022-08-05T15:41:02.518Z,99867.16
2022-08-05T15:42:55.681Z,99875.03
2022-08-05T15:45:10.499Z,99864.09
2022-08-05T15:47:41.142Z,99865.97
2022-08-05T15:50:09.032Z,99863.53
2022-08-05T15:52:53.460Z,99867.69
2022-08-05T15:55:24.867Z,99861.16
2022-08-05T15:58:09.597Z,99859.97
2022-08-05T16:00:57.145Z,99856.78
2022-08-05T16:03:30.357Z,99855.47
2022-08-05T16:05:59.536Z,99852.38
2022-08-05T16:08:30.421Z,99850.41
2022-08-05T16:10:58.216Z,99857.81
2022-08-05T16:13:32.030Z,99858.56
2022-08-05T16:16:01.461Z,99852.44
2022-08-05T16:18:30.753Z,99847.78
2022-08-05T16:20:57.563Z,99854.34
2022-08-05T16:23:24.256Z,99855.87
2022-08-05T16:25:55.787Z,99850.06
2022-08-05T16:28:24.197Z,99856.63
2022-08-05T16:30:52.129Z,99857.66
2022-08-05T16:33:19.563Z,99854.19
2022-08-05T16:35:49.878Z,99855.19
2022-08-05T16:38:25.683Z,99854.00
2022-08-05T16:41:00.928Z,99859.00
2022-08-05T16:43:33.399Z,99848.16
2022-08-05T16:46:04.311Z,99860.41
2022-08-05T16:48:35.814Z,99845.75
2022-08-05T16:51:08.725Z,99852.69
2022-08-05T16:54:02.488Z,99847.56
2022-08-05T16:56:25.773Z,99849.16
2022-08-05T16:58:52.569Z,99846.31
2022-08-05T17:01:20.237Z,99849.28
2022-08-05T17:03:47.485Z,99851.88
2022-08-05T17:06:16.407Z,99852.75
2022-08-05T17:08:53.000Z,99858.84
2022-08-05T17:11:25.410Z,99849.53
2022-08-05T17:14:00.558Z,99854.16
2022-08-05T17:16:37.887Z,99855.78
2022-08-05T17:19:07.759Z,99856.47
2022-08-05T17:21:37.798Z,99861.91
2022-08-05T17:24:27.978Z,99872.84
2022-08-05T17:26:58.365Z,99866.13
2022-08-05T17:29:33.269Z,99862.06
2022-08-05T17:32:06.771Z,99869.53
2022-08-05T17:34:35.169Z,99866.84
2022-08-05T17:37:01.988Z,99860.69
2022-08-05T17:39:34.670Z,99867.25
2022-08-05T17:42:18.831Z,99866.81
2022-08-05T17:44:50.048Z,99860.28
2022-08-05T17:47:22.919Z,99859.28
2022-08-05T17:50:00.429Z,99871.78
2022-08-05T17:52:32.691Z,99865.47
2022-08-05T17:55:00.716Z,99869.34
2022-08-05T17:57:29.802Z,99867.38
2022-08-05T18:00:03.686Z,99868.59
2022-08-05T18:02:34.357Z,99869.41
2022-08-05T18:05:06.325Z,99865.53
2022-08-05T18:07:41.210Z,99863.47
2022-08-05T18:10:10.944Z,99872.06
2022-08-05T18:12:38.590Z,99862.91
2022-08-05T18:15:06.820Z,99865.56
2022-08-05T18:18:00.750Z,99860.44
2022-08-05T18:20:29.267Z,99866.72
2022-08-05T18:23:00.571Z,99866.34
2022-08-05T18:25:35.948Z,99866.06
2022-08-05T18:28:05.294Z,99863.34
2022-08-05T18:30:33.180Z,99862.97
2022-08-05T18:33:01.290Z,99866.66
2022-08-05T18:35:59.952Z,99862.56
2022-08-05T18:38:19.617Z,99867.50
2022-08-05T18:41:57.176Z,99861.66
2022-08-05T18:43:42.960Z,99874.66
2022-08-05T18:46:15.992Z,99878.97
2022-08-05T18:48:51.534Z,99878.56
2022-08-05T18:52:05.558Z,99882.97
2022-08-05T18:54:28.578Z,99881.13
2022-08-05T18:57:00.996Z,99879.44
2022-08-05T18:59:43.494Z,99881.00
2022-08-05T19:02:28.267Z,99887.63
2022-08-05T19:05:02.248Z,99884.50
2022-08-05T19:07:47.772Z,99888.25
2022-08-05T19:10:14.990Z,99891.25
2022-08-05T19:12:43.318Z,99890.62
2022-08-05T19:15:56.639Z,99886.56
2022-08-05T19:18:09.625Z,99885.16
2022-08-05T19:20:41.764Z,99890.31
2022-08-05T19:24:04.350Z,99898.62
2022-08-05T19:26:01.848Z,99892.19
2022-08-05T19:28:31.060Z,99897.03
2022-08-05T19:31:00.924Z,99907.38
2022-08-05T19:33:35.391Z,99903.50
2022-08-05T19:36:09.068Z,99904.28
2022-08-05T19:38:36.278Z,99894.84
2022-08-05T19:41:09.030Z,99899.88
2022-08-05T19:44:06.628Z,99894.69
2022-08-05T19:46:29.012Z,99896.75
2022-08-05T19:49:03.046Z,99900.84
2022-08-05T19:51:59.836Z,99891.72
2022-08-05T19:54:25.628Z,99891.41
2022-08-05T19:56:56.258Z,99891.69
2022-08-05T20:00:00.713Z,99894.16
2022-08-05T20:02:09.852Z,99901.06
2022-08-05T20:04:37.758Z,99905.34
2022-08-05T20:07:10.419Z,99902.22
2022-08-05T20:09:53.878Z,99911.00
2022-08-05T20:12:22.401Z,99911.00
2022-08-05T20:14:52.111Z,99902.84
2022-08-05T20:17:23.417Z,99897.97
2022-08-05T20:19:56.780Z,99911.94
2022-08-05T20:22:26.793Z,99906.78
2022-08-05T20:24:55.364Z,99915.22
2022-08-05T20:27:27.030Z,99916.66
2022-08-05T20:29:58.575Z,99916.31
2022-08-05T20:32:26.623Z,99910.37
2022-08-05T20:34:53.635Z,99917.09
2022-08-05T20:38:04.442Z,99919.41
2022-08-05T20:40:07.770Z,99920.44
2022-08-05T20:42:34.632Z,99930.59
2022-08-05T20:45:02.650Z,99927.59
2022-08-05T20:47:31.093Z,99917.41
2022-08-05T20:49:59.906Z,99922.97
2022-08-05T20:52:28.793Z,99922.59
2022-08-05T20:54:59.558Z,99928.03
2022-08-05T20:57:44.423Z,99919.81
2022-08-05T21:00:40.030Z,99919.41
2022-08-05T21:03:06.318Z,99923.47
2022-08-05T21:05:47.665Z,99923.88
2022-08-05T21:08:21.134Z,99938.75
2022-08-05T21:10:53.679Z,99940.37
2022-08-05T21:13:26.452Z,99930.28
2022-08-05T21:16:07.207Z,99935.69
2022-08-05T21:18:34.346Z,99935.09
2022-08-05T21:21:02.497Z,99929.72
2022-08-05T21:23:29.146Z,99934.16
2022-08-05T21:26:04.272Z,99936.75
2022-08-05T21:28:47.965Z,99937.63
2022-08-05T21:31:18.231Z,99939.31
2022-08-05T21:33:47.800Z,99933.03
2022-08-05T21:36:19.045Z,99933.94
2022-08-05T21:38:54.607Z,99940.13
2022-08-05T21:41:21.489Z,99935.81
2022-08-05T21:44:01.323Z,99936.97
2022-08-05T21:46:31.044Z,99945.75
2022-08-05T21:48:59.869Z,99946.22
2022-08-05T21:52:22.580Z,99949.47
2022-08-05T21:54:13.314Z,99943.69
2022-08-05T21:56:44.208Z,99949.25
2022-08-05T21:59:23.967Z,99946.09
2022-08-05T22:01:54.437Z,99946.09
2022-08-05T22:04:25.436Z,99937.47
2022-08-05T22:06:52.888Z,99940.69
2022-08-05T22:09:21.471Z,99940.87
2022-08-05T22:11:48.709Z,99948.13
2022-08-05T22:14:33.837Z,99944.78
2022-08-05T22:17:06.460Z,99946.75
2022-08-05T22:19:57.247Z,99949.97
2022-08-05T22:22:27.408Z,99949.19
2022-08-05T22:25:18.136Z,99958.69
2022-08-05T22:28:10.926Z,99945.81
2022-08-05T22:30:44.277Z,99949.25
2022-08-05T22:33:58.636Z,99960.19
2022-08-05T22:36:14.490Z,99960.63
2022-08-05T22:38:42.638Z,99955.66
2022-08-05T22:41:10.273Z,99949.66
2022-08-05T22:43:37.993Z,99953.94
2022-08-05T22:46:11.969Z,99950.81
2022-08-05T22:48:40.058Z,99949.50
2022-08-05T22:51:07.693Z,99957.69
2022-08-05T22:53:35.807Z,99952.25
2022-08-05T22:56:02.753Z,99949.88
2022-08-05T22:58:29.375Z,99948.09
2022-08-05T23:00:57.003Z,99950.16
2022-08-05T23:03:58.352Z,99951.47
2022-08-05T23:06:10.692Z,99944.94
2022-08-05T23:08:37.292Z,99948.09
2022-08-05T23:11:05.983Z,99950.94
2022-08-05T23:13:35.336Z,99950.09
2022-08-05T23:16:03.898Z,99957.38
2022-08-05T23:18:30.590Z,99953.09
2022-08-05T23:20:58.972Z,99953.00
2022-08-05T23:23:26.076Z,99949.53
2022-08-05T23:25:56.586Z,99951.28
2022-08-05T23:28:29.147Z,99953.56
2022-08-05T23:31:16.099Z,99953.28
2022-08-05T23:34:04.821Z,99950.22
2022-08-05T23:36:38.320Z,99949.72
2022-08-05T23:39:05.677Z,99948.03
2022-08-05T23:41:34.376Z,99944.41
2022-08-05T23:44:08.637Z,99952.47
2022-08-05T23:46:37.505Z,99961.84
2022-08-05T23:49:16.972Z,99951.22
2022-08-05T23:52:07.706Z,99933.47
2022-08-05T23:54:38.286Z,99937.06
2022-08-05T23:57:06.665Z,99940.91
